Overview Statistics Trail Chart Weather Telemetry Raw packets
 

This is the latest recevied weather packets stored in our database for station/object WX5RP. If no packets are shown the sender has not sent any weather packets the latest 10 day(s).

<< 25 26 27 28 29 30 31 >>
Time Temp. Humidity Pressure Rain* Wind** Luminosity Snow
1777618516 4.44° C 59% 1018.9 hPa 0 mm - 0 W/m² -
1777617915 5° C 57% 1018.9 hPa 0 mm - 0 W/m² -
1777617317 6.11° C 55% 1018.5 hPa 0 mm - 0 W/m² -
1777616715 7.22° C 47% 1018.4 hPa 0 mm - 0 W/m² -
1777616116 7.78° C 45% 1018.4 hPa 0 mm - 0 W/m² -
1777615531 8.33° C 42% 1018.6 hPa 0 mm - 0 W/m² -
1777614916 8.33° C 42% 1018.4 hPa 0 mm - 0 W/m² -
1777614316 8.89° C 42% 1018.4 hPa 0 mm - 0 W/m² -
1777613715 8.89° C 42% 1017.9 hPa 0 mm - 0 W/m² -
1777613115 8.89° C 41% 1018.3 hPa 0 mm - 0 W/m² -
1777612515 8.33° C 40% 1018 hPa 0 mm - 0 W/m² -
1777611916 7.78° C 42% 1018.3 hPa 0 mm - 0 W/m² -
1777611316 7.78° C 46% 1018.5 hPa 0 mm - 0 W/m² -
1777610717 7.78° C 48% 1018.2 hPa 0 mm - 0 W/m² -
1777610117 8.89° C 46% 1017.7 hPa 0 mm - 0 W/m² -
1777609517 8.89° C 43% 1017.6 hPa 0 mm - 0 W/m² -
1777608917 8.89° C 45% 1017.6 hPa 0 mm - 0 W/m² -
1777608317 8.89° C 44% 1017.8 hPa 0 mm - 0 W/m² -
1777607717 9.44° C 43% 1017.6 hPa 0 mm - 0 W/m² -
1777607118 9.44° C 45% 1017.6 hPa 0 mm - 0 W/m² -
1777606517 10.56° C 43% 1017 hPa 0 mm - 0 W/m² -
1777605917 11.67° C 42% 1016.7 hPa 0 mm - 0 W/m² -
1777605334 12.78° C 39% 1017 hPa 0 mm - 0 W/m² -
1777604717 13.89° C 35% 1017.3 hPa 0 mm - 0 W/m² -
1777604117 15° C 32% 1016.9 hPa 0 mm - 8 W/m² -

* Rain latest hour (hover to see other rain measurements)
** Current wind speed in m/s (hover to see current wind gust speed)